Portada
METAR-TAF:

METAR-TAF

Aeropuertos :

Melilla, España

Aeropuerto de Melilla

latitud: 35-17N, longitud: 002-57W, altitud: 47 m

Observación

El informe se hizo hace 25 minutos, a las 02:30 UTC
Viento 4 kt del oeste-suroeste, variando entre sur-suroeste y oeste
Temperatura 13°C
Humedad 72%
Presión 1021 hPa
Visibilidad 10 km o más

METAR: GEML 180230Z AUTO 25004KT 210V270 9999 NCD 13/08 Q1021

Hora: 03:55 (02:55 UTC)

Pronóstico

El informe se hizo hace 55 minutos, a las 02:00 UTC
Pronóstico válido del 18 a las 03 UTC al 19 a las 03 UTC
Viento 10 kt del oeste-suroeste
Visibilidad 10 km o más
Escasas nubes a una altura de 1500 ft
Evolucionando progresivamente
del 18 a las 07 UTC al 18 a las 09 UTC
Viento 6 kt del este

TAF: GEML 180200Z 1803/1903 24010KT 9999 FEW015 TX18/1813Z TN08/1807Z BECMG 1807/1809 08006KT

Observaciones y pronósticos meteorológicos de más de 4000 aeropuertos (mensajes METAR y TAF).

Los puntos amarillos y rojos representan las estaciones disponibles.

Ponga el ratón en el punto deseado para ver el nombre de la estación.

Haga clic para ver las observaciones y los pronósticos meteorológicos.

Para cambiar el mapa : haga clic en los botones verdes con una cruz de color negro para hacer un zoom, en el botón verde con un guión para alejar o en las flechas verdes para mapas adyacentes.


METAR-TAF: